createdAt,value
2018-08-11T00:01:35.756Z,22.30
2018-08-11T00:04:04.531Z,22.30
2018-08-11T00:06:33.168Z,22.30
2018-08-11T00:09:01.747Z,22.30
2018-08-11T00:11:30.473Z,22.30
2018-08-11T00:13:59.074Z,22.20
2018-08-11T00:16:27.639Z,22.20
2018-08-11T00:18:56.175Z,22.10
2018-08-11T00:21:24.724Z,22.00
2018-08-11T00:23:53.309Z,22.10
2018-08-11T00:26:21.953Z,22.10
2018-08-11T00:28:50.474Z,22.20
2018-08-11T00:31:19.216Z,22.40
2018-08-11T00:33:47.734Z,22.50
2018-08-11T00:36:16.266Z,22.40
2018-08-11T00:38:44.879Z,22.40
2018-08-11T00:41:13.476Z,22.40
2018-08-11T00:43:42.070Z,22.40
2018-08-11T00:46:10.784Z,22.30
2018-08-11T00:48:39.454Z,22.30
2018-08-11T00:51:07.995Z,22.10
2018-08-11T00:53:36.566Z,22.00
2018-08-11T00:56:05.284Z,22.00
2018-08-11T00:58:33.879Z,22.10
2018-08-11T01:01:02.545Z,22.10
2018-08-11T01:03:31.206Z,21.90
2018-08-11T01:05:59.792Z,21.80
2018-08-11T01:08:28.291Z,21.80
2018-08-11T01:10:56.873Z,21.80
2018-08-11T01:13:25.440Z,21.80
2018-08-11T01:15:54.050Z,21.80
2018-08-11T01:18:22.710Z,21.70
2018-08-11T01:20:51.273Z,21.70
2018-08-11T01:23:19.855Z,21.70
2018-08-11T01:25:48.468Z,21.70
2018-08-11T01:28:17.147Z,21.60
2018-08-11T01:30:45.756Z,21.60
2018-08-11T01:33:14.376Z,21.60
2018-08-11T01:35:42.921Z,21.60
2018-08-11T01:38:11.555Z,21.60
2018-08-11T01:40:40.104Z,21.40
2018-08-11T01:43:08.651Z,21.40
2018-08-11T01:45:37.366Z,21.20
2018-08-11T01:48:06.366Z,21.20
2018-08-11T01:50:34.998Z,21.40
2018-08-11T01:53:03.640Z,21.50
2018-08-11T01:55:32.274Z,21.50
2018-08-11T01:58:00.869Z,21.50
2018-08-11T02:00:29.532Z,21.50
2018-08-11T02:02:58.309Z,21.50
2018-08-11T02:05:27.031Z,21.60
2018-08-11T02:07:55.740Z,21.50
2018-08-11T02:10:24.325Z,21.50
2018-08-11T02:12:52.991Z,21.50
2018-08-11T02:15:21.676Z,21.40
2018-08-11T02:17:50.260Z,21.50
2018-08-11T02:20:19.826Z,21.50
2018-08-11T02:22:49.518Z,21.50
2018-08-11T02:25:18.700Z,21.50
2018-08-11T02:27:47.590Z,21.40
2018-08-11T02:30:17.413Z,21.40
2018-08-11T02:32:46.076Z,21.40
2018-08-11T02:35:15.030Z,21.20
2018-08-11T02:37:44.277Z,21.30
2018-08-11T02:40:14.070Z,21.20
2018-08-11T02:42:42.758Z,21.10
2018-08-11T02:45:14.176Z,21.10
2018-08-11T02:47:42.814Z,21.20
2018-08-11T02:50:12.397Z,21.20
2018-08-11T02:52:41.644Z,21.10
2018-08-11T02:55:10.577Z,21.20
2018-08-11T02:57:39.107Z,21.30
2018-08-11T03:00:09.514Z,21.30
2018-08-11T03:02:38.506Z,21.40
2018-08-11T03:05:07.006Z,21.40
2018-08-11T03:07:35.845Z,21.30
2018-08-11T03:10:05.117Z,21.30
2018-08-11T03:12:33.857Z,21.20
2018-08-11T03:15:02.488Z,21.30
2018-08-11T03:17:31.079Z,21.30
2018-08-11T03:19:59.653Z,21.20
2018-08-11T03:22:28.250Z,21.20
2018-08-11T03:24:56.875Z,21.10
2018-08-11T03:27:25.416Z,21.00
2018-08-11T03:29:53.973Z,21.10
2018-08-11T03:32:22.491Z,21.20
2018-08-11T03:34:51.095Z,21.30
2018-08-11T03:37:19.649Z,21.40
2018-08-11T03:39:48.204Z,21.50
2018-08-11T03:42:16.893Z,21.40
2018-08-11T03:44:45.533Z,21.50
2018-08-11T03:47:14.168Z,21.40
2018-08-11T03:49:42.787Z,21.40
2018-08-11T03:52:11.314Z,21.50
2018-08-11T03:54:39.939Z,21.50
2018-08-11T03:57:08.509Z,21.50
2018-08-11T03:59:37.074Z,21.50
2018-08-11T04:02:05.727Z,21.30
2018-08-11T04:04:34.333Z,21.20
2018-08-11T04:07:02.882Z,21.40
2018-08-11T04:09:31.481Z,21.40
2018-08-11T04:12:00.116Z,21.50
2018-08-11T04:14:28.716Z,21.50
2018-08-11T04:16:57.337Z,21.40
2018-08-11T04:19:25.946Z,21.50
2018-08-11T04:21:54.539Z,21.30
2018-08-11T04:24:23.157Z,21.20
2018-08-11T04:26:51.695Z,21.10
2018-08-11T04:29:20.281Z,21.20
2018-08-11T04:31:48.833Z,21.30
2018-08-11T04:34:17.497Z,21.30
2018-08-11T04:36:46.064Z,21.20
2018-08-11T04:39:14.678Z,21.20
2018-08-11T04:41:43.314Z,21.20
2018-08-11T04:44:11.884Z,21.30
2018-08-11T04:46:40.420Z,21.40
2018-08-11T04:49:09.011Z,21.50
2018-08-11T04:51:37.547Z,21.60
2018-08-11T04:54:06.159Z,21.70
2018-08-11T04:56:34.814Z,21.60
2018-08-11T04:59:03.552Z,21.50
2018-08-11T05:01:32.179Z,21.50
2018-08-11T05:04:00.816Z,21.50
2018-08-11T05:06:29.366Z,21.50
2018-08-11T05:08:57.946Z,21.50
2018-08-11T05:11:26.588Z,21.50
2018-08-11T05:13:55.137Z,21.50
2018-08-11T05:16:23.819Z,21.40
2018-08-11T05:18:52.370Z,21.40
2018-08-11T05:21:21.060Z,21.50
2018-08-11T05:23:49.635Z,21.40
2018-08-11T05:26:18.325Z,21.20
2018-08-11T05:28:46.873Z,21.20
2018-08-11T05:31:15.454Z,21.20
2018-08-11T05:33:43.978Z,21.10
2018-08-11T05:36:12.629Z,21.20
2018-08-11T05:38:41.246Z,21.20
2018-08-11T05:41:09.907Z,21.20
2018-08-11T05:43:38.504Z,21.30
2018-08-11T05:46:07.070Z,21.30
2018-08-11T05:48:35.936Z,21.40
2018-08-11T05:51:04.552Z,21.40
2018-08-11T05:53:33.207Z,21.30
2018-08-11T05:56:01.819Z,21.20
2018-08-11T05:58:30.453Z,21.10
2018-08-11T06:00:59.014Z,21.20
2018-08-11T06:03:27.655Z,21.30
2018-08-11T06:05:56.203Z,21.40
2018-08-11T06:08:25.396Z,21.50
2018-08-11T06:10:54.023Z,21.50
2018-08-11T06:13:22.604Z,21.50
2018-08-11T06:15:51.252Z,21.50
2018-08-11T06:18:19.847Z,21.60
2018-08-11T06:20:48.365Z,21.50
2018-08-11T06:23:16.966Z,21.70
2018-08-11T06:25:45.580Z,21.60
2018-08-11T06:28:14.185Z,21.70
2018-08-11T06:30:42.800Z,21.90
2018-08-11T06:33:11.410Z,21.90
2018-08-11T06:35:40.112Z,21.90
2018-08-11T06:38:08.725Z,22.00
2018-08-11T06:40:37.472Z,22.00
2018-08-11T06:43:05.996Z,22.00
2018-08-11T06:45:34.622Z,22.00
2018-08-11T06:48:03.309Z,22.20
2018-08-11T06:50:31.931Z,22.20
2018-08-11T06:53:00.534Z,22.30
2018-08-11T06:55:29.070Z,22.30
2018-08-11T06:57:57.720Z,22.40
2018-08-11T07:00:26.287Z,22.40
2018-08-11T07:02:54.878Z,22.50
2018-08-11T07:08:06.733Z,22.80
2018-08-11T07:10:35.293Z,22.90
2018-08-11T07:13:04.214Z,23.10
2018-08-11T07:15:34.175Z,23.20
2018-08-11T07:18:03.007Z,23.40
2018-08-11T07:20:32.373Z,23.60
2018-08-11T07:23:00.948Z,23.70
2018-08-11T07:25:29.559Z,23.70
2018-08-11T07:27:58.210Z,23.70
2018-08-11T07:30:27.007Z,23.80
2018-08-11T07:32:55.559Z,23.90
2018-08-11T07:35:24.343Z,24.00
2018-08-11T07:37:53.071Z,24.00
2018-08-11T07:40:21.811Z,23.90
2018-08-11T07:42:50.443Z,24.10
2018-08-11T07:45:19.023Z,24.10
2018-08-11T07:47:47.575Z,24.10
2018-08-11T07:50:16.469Z,24.20
2018-08-11T07:52:45.087Z,24.30
2018-08-11T07:55:13.841Z,24.30
2018-08-11T07:57:42.395Z,24.30
2018-08-11T08:00:12.271Z,24.30
2018-08-11T08:02:41.557Z,24.30
2018-08-11T08:05:10.164Z,24.40
2018-08-11T08:07:39.009Z,24.40
2018-08-11T08:10:07.943Z,24.40
2018-08-11T08:12:37.575Z,24.40
2018-08-11T08:15:06.727Z,24.40
2018-08-11T08:17:35.418Z,24.50
2018-08-11T08:20:04.703Z,24.40
2018-08-11T08:22:33.453Z,24.50
2018-08-11T08:25:02.008Z,24.70
2018-08-11T08:27:30.619Z,24.80
2018-08-11T08:29:59.335Z,24.90
2018-08-11T08:32:28.057Z,25.00
2018-08-11T08:34:56.710Z,25.10
2018-08-11T08:37:25.390Z,25.10
2018-08-11T08:39:54.169Z,25.20
2018-08-11T08:42:22.897Z,25.20
2018-08-11T08:44:51.488Z,25.20
2018-08-11T08:47:20.185Z,25.20
2018-08-11T08:49:48.776Z,25.30
2018-08-11T08:52:17.479Z,25.40
2018-08-11T08:54:46.801Z,25.40
2018-08-11T08:57:15.408Z,25.40
2018-08-11T08:59:44.014Z,25.40
2018-08-11T09:02:12.556Z,25.30
2018-08-11T09:04:42.261Z,25.40
2018-08-11T09:07:10.950Z,25.40
2018-08-11T09:09:54.103Z,25.40
2018-08-11T09:12:22.868Z,25.30
2018-08-11T09:14:51.571Z,25.20
2018-08-11T09:17:20.300Z,25.20
2018-08-11T09:19:48.938Z,25.10
2018-08-11T09:22:17.527Z,25.10
2018-08-11T09:24:46.467Z,25.00
2018-08-11T09:27:15.051Z,25.00
2018-08-11T09:29:44.240Z,25.00
2018-08-11T09:32:12.827Z,25.00
2018-08-11T09:34:41.572Z,24.90
2018-08-11T09:37:10.156Z,25.00
2018-08-11T09:39:39.641Z,25.00
2018-08-11T09:42:08.257Z,24.90
2018-08-11T09:44:36.877Z,24.90
2018-08-11T09:47:05.496Z,25.00
2018-08-11T09:49:34.079Z,25.00
2018-08-11T09:52:02.697Z,25.00
2018-08-11T09:54:31.343Z,25.00
2018-08-11T09:57:00.067Z,25.10
2018-08-11T09:59:28.767Z,25.10
2018-08-11T10:02:02.728Z,25.00
2018-08-11T10:04:31.265Z,25.00
2018-08-11T10:07:00.063Z,24.90
2018-08-11T10:09:28.723Z,24.90
2018-08-11T10:11:57.406Z,24.90
2018-08-11T10:14:26.024Z,24.90
2018-08-11T10:16:54.599Z,24.90
2018-08-11T10:19:23.192Z,25.00
2018-08-11T10:21:51.955Z,25.00
2018-08-11T10:24:20.845Z,25.00
2018-08-11T10:26:50.005Z,25.10
2018-08-11T10:29:19.459Z,25.10
2018-08-11T10:31:48.339Z,25.10
2018-08-11T10:34:16.901Z,25.10
2018-08-11T10:36:45.545Z,25.20
2018-08-11T10:39:14.438Z,25.10
2018-08-11T10:41:43.009Z,25.10
2018-08-11T10:44:12.147Z,25.00
2018-08-11T10:46:40.730Z,25.00
2018-08-11T10:49:09.335Z,25.10
2018-08-11T10:51:38.020Z,25.10
2018-08-11T10:54:06.568Z,25.20
2018-08-11T10:56:35.118Z,25.20
2018-08-11T10:59:03.733Z,25.20
2018-08-11T11:01:32.328Z,25.30
2018-08-11T11:04:00.970Z,25.30
2018-08-11T11:06:29.660Z,25.30
2018-08-11T11:08:58.370Z,25.20
2018-08-11T11:11:27.032Z,25.20
2018-08-11T11:13:55.898Z,25.30
2018-08-11T11:16:24.562Z,25.30
2018-08-11T11:18:53.115Z,25.30
2018-08-11T11:21:21.780Z,25.30
2018-08-11T11:23:50.368Z,25.30
2018-08-11T11:26:18.951Z,25.40
2018-08-11T11:28:47.542Z,25.40
2018-08-11T11:31:16.162Z,25.40
2018-08-11T11:33:44.769Z,25.40
2018-08-11T11:36:13.416Z,25.40
2018-08-11T11:38:41.998Z,25.50
2018-08-11T11:41:10.620Z,25.60
2018-08-11T11:43:39.148Z,25.60
2018-08-11T11:46:07.699Z,25.70
2018-08-11T11:48:36.308Z,25.70
2018-08-11T11:51:05.014Z,25.70
2018-08-11T11:53:33.607Z,25.80
2018-08-11T11:56:02.210Z,25.90
2018-08-11T11:58:30.786Z,26.00
2018-08-11T12:01:00.094Z,26.00
2018-08-11T12:03:28.700Z,26.00
2018-08-11T12:05:57.308Z,26.00
2018-08-11T12:08:25.979Z,25.90
2018-08-11T12:10:54.642Z,25.90
2018-08-11T12:13:23.152Z,25.90
2018-08-11T12:15:51.813Z,25.90
2018-08-11T12:18:20.387Z,25.90
2018-08-11T12:20:48.988Z,26.00
2018-08-11T12:23:17.671Z,26.00
2018-08-11T12:25:46.222Z,26.10
2018-08-11T12:28:14.771Z,26.00
2018-08-11T12:30:43.391Z,26.00
2018-08-11T12:33:12.025Z,26.10
2018-08-11T12:35:40.587Z,26.20
2018-08-11T12:38:09.152Z,26.20
2018-08-11T12:40:37.655Z,26.20
2018-08-11T12:43:06.258Z,26.20
2018-08-11T12:45:34.918Z,26.20
2018-08-11T12:48:03.660Z,26.30
2018-08-11T12:50:32.252Z,26.30
2018-08-11T12:53:00.838Z,26.20
2018-08-11T12:55:29.454Z,26.30
2018-08-11T12:57:58.056Z,26.40
2018-08-11T13:00:26.860Z,26.40
2018-08-11T13:02:55.378Z,26.40
2018-08-11T13:05:23.976Z,26.30
2018-08-11T13:07:52.623Z,26.30
2018-08-11T13:10:21.230Z,26.30
2018-08-11T13:12:49.884Z,26.30
2018-08-11T13:15:18.519Z,26.30
2018-08-11T13:17:47.509Z,26.30
2018-08-11T13:20:16.554Z,26.40
2018-08-11T13:22:45.139Z,26.40
2018-08-11T13:25:13.840Z,26.40
2018-08-11T13:27:42.491Z,26.30
2018-08-11T13:30:11.351Z,26.30
2018-08-11T13:32:40.051Z,26.30
2018-08-11T13:35:08.644Z,26.30
2018-08-11T13:37:37.412Z,26.30
2018-08-11T13:40:06.358Z,26.30
2018-08-11T13:42:35.043Z,26.20
2018-08-11T13:45:03.888Z,26.20
2018-08-11T13:47:32.549Z,26.20
2018-08-11T13:50:01.180Z,26.20
2018-08-11T13:52:29.841Z,26.20
2018-08-11T13:54:58.539Z,26.20
2018-08-11T13:57:27.212Z,26.20
2018-08-11T13:59:55.800Z,26.20
2018-08-11T14:02:24.400Z,26.30
2018-08-11T14:04:53.060Z,26.40
2018-08-11T14:07:21.720Z,26.30
2018-08-11T14:09:50.449Z,26.40
2018-08-11T14:12:19.119Z,26.50
2018-08-11T14:14:47.742Z,26.60
2018-08-11T14:17:16.347Z,26.60
2018-08-11T14:19:44.959Z,26.70
2018-08-11T14:22:13.666Z,26.70
2018-08-11T14:24:42.303Z,26.60
2018-08-11T14:27:10.924Z,26.60
2018-08-11T14:29:39.565Z,26.70
2018-08-11T14:32:08.223Z,26.70
2018-08-11T14:34:36.890Z,26.70
2018-08-11T14:37:05.626Z,26.60
2018-08-11T14:39:34.258Z,26.60
2018-08-11T14:42:02.961Z,26.60
2018-08-11T14:44:31.766Z,26.60
2018-08-11T14:47:00.484Z,26.60
2018-08-11T14:49:29.244Z,26.60
2018-08-11T14:51:57.772Z,26.60
2018-08-11T14:54:27.250Z,26.60
2018-08-11T14:56:55.806Z,26.70
2018-08-11T14:59:24.356Z,26.70
2018-08-11T15:01:53.027Z,26.70
2018-08-11T15:04:21.583Z,26.70
2018-08-11T15:06:50.284Z,26.70
2018-08-11T15:09:19.778Z,26.80
2018-08-11T15:11:48.360Z,26.80
2018-08-11T15:14:17.230Z,26.70
2018-08-11T15:16:46.193Z,26.70
2018-08-11T15:19:14.828Z,26.70
2018-08-11T15:21:43.490Z,26.70
2018-08-11T15:24:12.048Z,26.70
2018-08-11T15:26:40.679Z,26.70
2018-08-11T15:29:09.326Z,26.80
2018-08-11T15:31:37.971Z,26.80
2018-08-11T15:34:06.684Z,26.90
2018-08-11T15:36:35.358Z,26.80
2018-08-11T15:39:06.226Z,26.90
2018-08-11T15:41:34.828Z,26.90
2018-08-11T15:44:03.564Z,26.90
2018-08-11T15:46:32.169Z,26.80
2018-08-11T15:49:00.923Z,26.80
2018-08-11T15:51:29.708Z,26.80
2018-08-11T15:53:58.448Z,26.80
2018-08-11T15:56:41.518Z,26.80
2018-08-11T15:59:10.075Z,26.80
2018-08-11T16:01:38.604Z,26.80
2018-08-11T16:04:07.296Z,26.80
2018-08-11T16:06:35.847Z,26.70
2018-08-11T16:09:06.376Z,26.80
2018-08-11T16:11:34.993Z,26.80
2018-08-11T16:14:04.723Z,26.80
2018-08-11T16:16:33.304Z,26.80
2018-08-11T16:19:01.902Z,26.80
2018-08-11T16:21:30.447Z,26.90
2018-08-11T16:23:59.167Z,26.80
2018-08-11T16:26:27.818Z,26.80
2018-08-11T16:28:56.450Z,26.80
2018-08-11T16:31:25.210Z,26.80
2018-08-11T16:33:54.024Z,26.80
2018-08-11T16:36:22.659Z,26.80
2018-08-11T16:38:51.495Z,26.70
2018-08-11T16:41:22.346Z,26.70
2018-08-11T16:43:51.173Z,26.70
2018-08-11T16:46:20.474Z,26.70
2018-08-11T16:48:49.059Z,26.70
2018-08-11T16:51:17.686Z,26.70
2018-08-11T16:53:46.414Z,26.70
2018-08-11T16:56:15.119Z,26.70
2018-08-11T16:58:43.830Z,26.70
2018-08-11T17:01:12.535Z,26.70
2018-08-11T17:03:41.135Z,26.70
2018-08-11T17:06:10.012Z,26.70
2018-08-11T17:08:38.657Z,26.60
2018-08-11T17:11:07.263Z,26.60
2018-08-11T17:13:35.876Z,26.60
2018-08-11T17:16:04.608Z,26.60
2018-08-11T17:18:33.405Z,26.60
2018-08-11T17:21:02.104Z,26.60
2018-08-11T17:23:30.793Z,26.60
2018-08-11T17:25:59.398Z,26.50
2018-08-11T17:28:28.183Z,26.50
2018-08-11T17:30:56.744Z,26.50
2018-08-11T17:33:25.605Z,26.40
2018-08-11T17:35:54.253Z,26.40
2018-08-11T17:38:22.899Z,26.40
2018-08-11T17:40:51.543Z,26.30
2018-08-11T17:43:20.233Z,26.30
2018-08-11T17:45:48.864Z,26.30
2018-08-11T17:48:17.936Z,26.20
2018-08-11T17:50:46.473Z,26.30
2018-08-11T17:53:15.511Z,26.20
2018-08-11T17:55:44.064Z,26.20
2018-08-11T17:58:13.196Z,26.20
2018-08-11T18:00:42.229Z,26.20
2018-08-11T18:03:10.942Z,26.20
2018-08-11T18:05:39.610Z,26.20
2018-08-11T18:08:08.112Z,26.20
2018-08-11T18:10:37.070Z,26.20
2018-08-11T18:13:05.626Z,26.20
2018-08-11T18:15:35.351Z,26.10
2018-08-11T18:18:04.022Z,26.10
2018-08-11T18:20:32.603Z,26.00
2018-08-11T18:23:01.260Z,26.10
2018-08-11T18:25:30.009Z,26.10
2018-08-11T18:27:58.612Z,26.10
2018-08-11T18:30:27.355Z,26.00
2018-08-11T18:32:55.940Z,26.00
2018-08-11T18:35:24.539Z,26.00
2018-08-11T18:37:53.217Z,26.00
2018-08-11T18:40:21.909Z,25.90
2018-08-11T18:42:50.504Z,25.90
2018-08-11T18:45:19.123Z,25.80
2018-08-11T18:47:47.771Z,25.80
2018-08-11T18:50:16.403Z,25.80
2018-08-11T18:52:45.044Z,25.80
2018-08-11T18:55:13.731Z,25.70
2018-08-11T18:57:42.351Z,25.70
2018-08-11T19:00:14.178Z,25.70
2018-08-11T19:02:43.067Z,25.70
2018-08-11T19:05:11.898Z,25.60
2018-08-11T19:07:40.691Z,25.60
2018-08-11T19:10:10.614Z,25.60
2018-08-11T19:12:39.864Z,25.50
2018-08-11T19:15:12.117Z,25.50
2018-08-11T19:17:41.952Z,25.50
2018-08-11T19:20:12.988Z,25.50
2018-08-11T19:22:42.841Z,25.50
2018-08-11T19:25:12.405Z,25.40
2018-08-11T19:27:41.738Z,25.30
2018-08-11T19:30:11.160Z,25.10
2018-08-11T19:32:41.331Z,25.00
2018-08-11T19:35:09.920Z,24.90
2018-08-11T19:37:38.546Z,24.80
2018-08-11T19:40:08.412Z,24.70
2018-08-11T19:42:37.111Z,24.60
2018-08-11T19:45:08.553Z,24.50
2018-08-11T19:47:37.600Z,24.40
2018-08-11T19:50:07.113Z,24.30
2018-08-11T19:52:35.805Z,24.20
2018-08-11T19:55:05.005Z,24.10
2018-08-11T19:57:33.776Z,24.00
2018-08-11T20:00:02.497Z,24.00
2018-08-11T20:02:31.186Z,24.00
2018-08-11T20:04:59.918Z,24.00
2018-08-11T20:07:28.518Z,23.90
2018-08-11T20:09:57.159Z,23.90
2018-08-11T20:12:25.794Z,23.80
2018-08-11T20:14:54.700Z,23.70
2018-08-11T20:17:23.456Z,23.70
2018-08-11T20:19:52.397Z,23.70
2018-08-11T20:22:20.979Z,23.60
2018-08-11T20:24:49.643Z,23.50
2018-08-11T20:27:18.665Z,23.40
2018-08-11T20:29:47.667Z,23.50
2018-08-11T20:32:16.420Z,23.40
2018-08-11T20:34:45.055Z,23.40
2018-08-11T20:37:13.838Z,22.70
2018-08-11T20:39:43.074Z,23.40
2018-08-11T20:42:11.673Z,23.40
2018-08-11T20:44:40.527Z,23.20
2018-08-11T20:47:09.815Z,23.20
2018-08-11T20:49:38.438Z,23.10
2018-08-11T20:52:07.044Z,23.10
2018-08-11T20:54:35.814Z,23.00
2018-08-11T20:57:05.114Z,22.90
2018-08-11T20:59:34.253Z,23.00
2018-08-11T21:02:03.168Z,22.90
2018-08-11T21:04:31.791Z,22.80
2018-08-11T21:07:00.589Z,22.80
2018-08-11T21:09:29.590Z,22.80
2018-08-11T21:11:58.497Z,22.80
2018-08-11T21:14:27.114Z,22.70
2018-08-11T21:16:55.845Z,22.70
2018-08-11T21:19:24.408Z,22.60
2018-08-11T21:21:53.252Z,22.50
2018-08-11T21:24:21.847Z,22.50
2018-08-11T21:26:50.878Z,22.40
2018-08-11T21:29:19.916Z,22.40
2018-08-11T21:31:48.656Z,22.40
2018-08-11T21:34:17.288Z,22.30
2018-08-11T21:36:46.349Z,22.30
2018-08-11T21:39:15.419Z,22.20
2018-08-11T21:41:44.079Z,22.20
2018-08-11T21:44:12.707Z,22.10
2018-08-11T21:46:41.336Z,22.10
2018-08-11T21:49:10.732Z,22.00
2018-08-11T21:51:39.352Z,21.90
2018-08-11T21:54:08.444Z,21.90
2018-08-11T21:56:37.055Z,21.90
2018-08-11T21:59:05.871Z,21.90
2018-08-11T22:01:34.502Z,21.90
2018-08-11T22:04:04.081Z,21.80
2018-08-11T22:06:32.731Z,21.80
2018-08-11T22:09:01.404Z,21.80
2018-08-11T22:11:30.162Z,21.80
2018-08-11T22:13:58.982Z,21.80
2018-08-11T22:16:27.704Z,21.80
2018-08-11T22:18:56.801Z,21.70
2018-08-11T22:21:25.394Z,21.60
2018-08-11T22:23:53.998Z,21.50
2018-08-11T22:26:22.686Z,21.50
2018-08-11T22:28:51.388Z,21.50
2018-08-11T22:31:20.023Z,21.40
2018-08-11T22:33:49.132Z,21.40
2018-08-11T22:36:17.791Z,21.30
2018-08-11T22:38:46.531Z,21.30
2018-08-11T22:41:15.177Z,21.20
2018-08-11T22:43:44.201Z,21.20
2018-08-11T22:46:12.941Z,21.20
2018-08-11T22:48:41.973Z,21.00
2018-08-11T22:51:10.500Z,21.00
2018-08-11T22:53:39.175Z,21.00
2018-08-11T22:56:07.871Z,20.90
2018-08-11T22:58:36.586Z,20.90
2018-08-11T23:01:06.159Z,20.80
2018-08-11T23:03:34.805Z,20.80
2018-08-11T23:06:04.094Z,20.80
2018-08-11T23:08:32.806Z,20.70
2018-08-11T23:11:01.452Z,20.70
2018-08-11T23:13:30.114Z,20.70
2018-08-11T23:15:58.725Z,20.70
2018-08-11T23:18:27.782Z,20.70
2018-08-11T23:20:56.447Z,20.70
2018-08-11T23:23:25.054Z,20.60
2018-08-11T23:25:53.787Z,20.70
2018-08-11T23:28:22.544Z,20.70
2018-08-11T23:30:51.176Z,20.60
2018-08-11T23:33:19.860Z,20.60
2018-08-11T23:35:48.772Z,20.50
2018-08-11T23:38:17.679Z,20.40
2018-08-11T23:40:46.227Z,20.50
2018-08-11T23:43:15.284Z,20.40
2018-08-11T23:45:43.930Z,20.40
2018-08-11T23:48:12.650Z,20.40
2018-08-11T23:50:41.171Z,20.30
2018-08-11T23:53:10.068Z,20.20
2018-08-11T23:55:38.694Z,20.20
2018-08-11T23:58:08.342Z,20.20
